Time;durP1;ratioP1;P1;durP2;ratioP2;P2;SDS_P1;SDS_P2;PMS_P1;PMS_P2;Temp;Humidity;BMP_temperature;BMP_pressure;BME280_temperature;BME280_humidity;BME280_pressure;Samples;Min_cycle;Max_cycle;Signal;HPM_P1;HPM_P2
2023/10/14 00:02:22;;;;;;;9.20;4.80;;;;;;;11.75;65.05;100024.58;108433;1253;72602;-79
2023/10/14 00:04:53;;;;;;;7.70;4.40;;;;;;;11.75;64.99;100028.36;108545;1254;68709;-81
2023/10/14 00:07:24;;;;;;;7.30;4.60;;;;;;;11.74;64.78;100024.33;108763;1253;71511;-78
2023/10/14 00:09:57;;;;;;;12.70;5.20;;;;;;;11.74;64.66;100029.83;108840;1253;202919;-77
2023/10/14 00:14:21;;;;;;;6.80;4.70;;;;;;;11.77;64.82;100036.05;103079;1293;600754;-77
2023/10/14 00:16:51;;;;;;;7.80;5.10;;;;;;;11.74;65.03;100032.69;105321;1269;59380;-78
2023/10/14 00:19:21;;;;;;;11.60;5.30;;;;;;;11.73;65.05;100028.64;106409;1267;60075;-78
2023/10/14 00:21:50;;;;;;;7.70;5.50;;;;;;;11.69;65.15;100030.04;106430;1272;70457;-79
2023/10/14 00:24:27;;;;;;;10.70;5.90;;;;;;;11.67;65.33;100034.23;106345;1267;68748;-81
2023/10/14 00:26:57;;;;;;;9.20;5.20;;;;;;;11.63;65.69;100031.44;105783;1267;197866;-78
2023/10/14 00:29:29;;;;;;;6.90;4.70;;;;;;;11.59;65.74;100027.08;106443;1263;60034;-79
2023/10/14 00:31:58;;;;;;;8.60;5.30;;;;;;;11.54;65.91;100022.61;106674;1256;59176;-80
2023/10/14 00:34:29;;;;;;;9.50;5.30;;;;;;;11.50;66.07;100026.13;107626;1258;72294;-82
2023/10/14 00:36:57;;;;;;;7.90;5.60;;;;;;;11.46;66.32;100023.70;107091;1257;69076;-81
2023/10/14 00:39:27;;;;;;;7.60;4.60;;;;;;;11.44;66.34;100020.61;106660;1260;71895;-79
2023/10/14 00:41:58;;;;;;;8.00;5.20;;;;;;;11.43;66.32;100017.98;106906;1256;60407;-80
2023/10/14 00:44:26;;;;;;;7.00;4.70;;;;;;;11.52;66.30;100017.54;106744;1256;59557;-78
2023/10/14 00:46:54;;;;;;;6.50;5.00;;;;;;;11.55;66.21;100012.58;106978;1255;71854;-78
2023/10/14 00:49:34;;;;;;;10.40;5.20;;;;;;;11.52;66.42;100007.43;106670;1256;69241;-80
2023/10/14 00:52:18;;;;;;;6.90;5.00;;;;;;;11.49;66.32;99999.02;106826;1257;71619;-80
2023/10/14 00:57:21;;;;;;;9.00;5.30;;;;;;;11.42;66.43;99988.98;106771;1257;60731;-79
2023/10/14 00:59:50;;;;;;;8.90;5.30;;;;;;;11.40;66.45;99987.81;106148;1257;71770;-82
2023/10/14 01:02:29;;;;;;;7.50;5.40;;;;;;;11.37;66.42;99985.48;106393;1257;68759;-82
2023/10/14 01:05:06;;;;;;;9.80;5.50;;;;;;;11.35;66.74;99975.26;108865;1253;71434;-87
2023/10/14 01:07:39;;;;;;;8.10;5.00;;;;;;;11.32;66.85;99972.88;109396;1253;58080;-86
2023/10/14 01:10:11;;;;;;;9.90;5.70;;;;;;;11.32;66.86;99965.11;109235;1253;59201;-82
2023/10/14 01:12:45;;;;;;;10.20;5.50;;;;;;;11.31;66.85;99960.79;107942;1256;72061;-81
2023/10/14 01:15:20;;;;;;;7.70;5.20;;;;;;;11.28;66.82;99956.27;107024;1256;71187;-79
2023/10/14 01:17:53;;;;;;;11.80;5.80;;;;;;;11.26;67.10;99952.69;106736;1256;71256;-82
2023/10/14 01:22:51;;;;;;;9.60;5.20;;;;;;;11.25;67.16;99944.41;106941;1254;59257;-81
2023/10/14 01:25:19;;;;;;;7.70;4.90;;;;;;;11.35;66.86;99940.89;107293;1255;73159;-83
2023/10/14 01:27:49;;;;;;;8.60;5.00;;;;;;;11.36;66.64;99941.45;106046;1253;70502;-81
2023/10/14 01:30:26;;;;;;;7.80;5.10;;;;;;;11.35;66.46;99941.17;105816;1254;71189;-82
2023/10/14 01:33:07;;;;;;;6.40;3.80;;;;;;;11.35;66.51;99936.55;105928;1257;59622;-79
2023/10/14 01:35:40;;;;;;;7.10;4.30;;;;;;;11.36;66.13;99940.42;106213;1252;59999;-81
2023/10/14 01:38:08;;;;;;;7.90;4.20;;;;;;;11.38;66.04;99940.02;106328;1254;72331;-82
2023/10/14 01:40:38;;;;;;;9.60;4.40;;;;;;;11.41;65.86;99940.14;105741;1259;69950;-80
2023/10/14 01:43:08;;;;;;;8.50;4.50;;;;;;;11.44;65.90;99937.34;105855;1254;72624;-80
2023/10/14 01:45:48;;;;;;;6.10;3.60;;;;;;;11.48;65.74;99938.70;106126;1260;60060;-83
2023/10/14 01:48:21;;;;;;;8.70;3.20;;;;;;;11.51;65.88;99937.11;106037;1258;61201;-80
2023/10/14 01:50:54;;;;;;;5.20;3.70;;;;;;;11.54;66.45;99942.44;106112;1254;71844;-81
2023/10/14 01:53:23;;;;;;;5.90;3.50;;;;;;;11.56;67.01;99944.36;106035;1254;69242;-78
2023/10/14 01:55:53;;;;;;;5.60;3.20;;;;;;;11.58;67.61;99934.96;106202;1254;71690;-80
2023/10/14 01:58:22;;;;;;;5.50;3.30;;;;;;;11.63;68.06;99925.92;106284;1254;61992;-81
2023/10/14 02:00:53;;;;;;;4.60;3.50;;;;;;;11.75;68.06;99928.29;108262;1253;60345;-82
2023/10/14 02:03:21;;;;;;;6.60;3.90;;;;;;;11.78;68.06;99923.98;108129;1253;72022;-81
2023/10/14 02:05:51;;;;;;;6.00;4.10;;;;;;;11.78;68.21;99933.43;108003;1252;69267;-79
2023/10/14 02:08:22;;;;;;;7.20;3.70;;;;;;;11.78;68.50;99935.77;109176;1254;71462;-80
2023/10/14 02:10:50;;;;;;;5.50;3.70;;;;;;;11.77;68.78;99943.08;108133;1254;59644;-80
2023/10/14 02:13:19;;;;;;;5.20;3.60;;;;;;;11.76;68.80;99939.46;106745;1253;59769;-79
2023/10/14 02:15:47;;;;;;;5.40;3.90;;;;;;;11.75;68.94;99929.53;106536;1254;71883;-81
2023/10/14 02:18:22;;;;;;;6.30;3.90;;;;;;;11.72;68.96;99924.99;106094;1254;68705;-81
2023/10/14 02:21:04;;;;;;;4.50;3.30;;;;;;;11.70;69.26;99933.10;105931;1254;70559;-81
2023/10/14 02:23:46;;;;;;;4.70;3.00;;;;;;;11.77;69.02;99927.65;106001;1256;61097;-80
2023/10/14 02:26:27;;;;;;;5.10;4.00;;;;;;;11.78;69.14;99938.02;106044;1256;60165;-81
2023/10/14 02:28:55;;;;;;;4.20;3.50;;;;;;;11.76;69.03;99934.54;105857;1256;73331;-80
2023/10/14 02:33:56;;;;;;;5.70;4.00;;;;;;;11.70;69.45;99928.48;106555;1254;71194;-81
2023/10/14 02:36:34;;;;;;;7.10;4.40;;;;;;;11.68;69.50;99925.85;106581;1254;60000;-80
2023/10/14 02:39:14;;;;;;;9.60;4.30;;;;;;;11.66;69.74;99924.83;107478;1253;59564;-78
2023/10/14 02:41:58;;;;;;;7.50;4.00;;;;;;;11.73;69.68;99918.74;106176;1256;72404;-79
2023/10/14 02:44:32;;;;;;;7.50;4.40;;;;;;;11.74;69.60;99912.30;105772;1258;68740;-79
2023/10/14 02:47:04;;;;;;;6.40;4.30;;;;;;;11.70;69.75;99912.36;106134;1254;72992;-83
2023/10/14 02:49:42;;;;;;;6.60;5.00;;;;;;;11.66;69.89;99908.70;106048;1256;59722;-81
2023/10/14 02:52:11;;;;;;;7.00;4.70;;;;;;;11.60;70.22;99907.87;105722;1254;60055;-80
2023/10/14 02:54:54;;;;;;;6.00;5.20;;;;;;;11.56;70.36;99898.97;106109;1254;71831;-81
2023/10/14 02:59:51;;;;;;;8.00;5.00;;;;;;;11.60;70.58;99893.70;106999;1254;74177;-86
2023/10/14 03:07:29;;;;;;;5.50;5.00;;;;;;;11.55;70.64;99871.21;108107;1253;71727;-80
2023/10/14 03:10:09;;;;;;;7.50;5.70;;;;;;;11.52;70.79;99867.83;108454;1253;69184;-80
2023/10/14 03:12:42;;;;;;;6.60;5.20;;;;;;;11.48;70.85;99868.09;107910;1254;71213;-80
2023/10/14 03:15:19;;;;;;;6.30;5.00;;;;;;;11.47;71.08;99866.31;107629;1253;61705;-78
2023/10/14 03:17:58;;;;;;;6.90;5.50;;;;;;;11.54;70.72;99865.63;107947;1254;59597;-79
2023/10/14 03:22:57;;;;;;;7.00;5.40;;;;;;;11.53;70.74;99849.85;107499;1253;70275;-78
2023/10/14 03:25:27;;;;;;;6.00;5.10;;;;;;;11.50;70.83;99852.66;106096;1252;72732;-80
2023/10/14 03:27:59;;;;;;;6.30;5.50;;;;;;;11.46;70.83;99856.43;105998;1254;60184;-79
2023/10/14 03:30:27;;;;;;;6.90;5.60;;;;;;;11.42;70.97;99855.81;106108;1254;59978;-80
2023/10/14 03:32:55;;;;;;;5.50;4.60;;;;;;;11.48;70.94;99856.59;106171;1253;72846;-80
2023/10/14 03:35:27;;;;;;;9.30;5.20;;;;;;;11.50;70.51;99861.52;105807;1254;69865;-80
2023/10/14 03:37:59;;;;;;;6.60;5.30;;;;;;;11.46;70.85;99855.41;105851;1252;74854;-80
2023/10/14 03:43:15;;;;;;;5.90;5.30;;;;;;;11.38;70.93;99857.92;105962;1254;61434;-81
2023/10/14 03:46:03;;;;;;;7.10;5.30;;;;;;;11.33;71.09;99855.89;106030;1254;72977;-78
2023/10/14 03:48:45;;;;;;;5.80;5.10;;;;;;;11.38;71.07;99863.30;105963;1256;68919;-77
2023/10/14 03:51:22;;;;;;;6.40;5.30;;;;;;;11.40;71.04;99854.13;106008;1253;72678;-78
2023/10/14 03:53:57;;;;;;;6.70;5.50;;;;;;;11.35;71.13;99863.88;106287;1254;62645;-77
2023/10/14 03:56:25;;;;;;;7.00;5.50;;;;;;;11.32;71.08;99858.39;106016;1253;59620;-79
2023/10/14 03:59:00;;;;;;;8.60;6.30;;;;;;;11.30;71.31;99855.91;105986;1256;73066;-76
2023/10/14 04:01:34;;;;;;;6.60;5.20;;;;;;;11.32;71.12;99861.06;105987;1256;68901;-79
2023/10/14 04:04:14;;;;;;;6.80;6.00;;;;;;;11.40;70.86;99853.80;106620;1254;72688;-79
2023/10/14 04:06:51;;;;;;;8.40;5.50;;;;;;;11.38;70.84;99848.06;107202;1259;59705;-78
2023/10/14 04:09:24;;;;;;;7.40;5.60;;;;;;;11.35;70.95;99843.70;108275;1253;59733;-77
2023/10/14 04:11:55;;;;;;;7.70;6.20;;;;;;;11.30;71.23;99839.63;108770;1254;72231;-78
2023/10/14 04:14:27;;;;;;;7.60;5.60;;;;;;;11.28;71.46;99834.34;108820;1254;68732;-80
2023/10/14 04:22:39;;;;;;;7.60;6.40;;;;;;;11.33;71.48;99827.39;105891;1253;59732;-81
2023/10/14 04:25:19;;;;;;;9.80;6.20;;;;;;;11.30;71.97;99827.92;105960;1256;73057;-80
2023/10/14 04:30:21;;;;;;;10.10;6.40;;;;;;;11.28;72.39;99827.78;106614;1256;71133;-82
2023/10/14 04:35:23;;;;;;;7.70;6.60;;;;;;;11.34;72.68;99827.48;106223;1256;60424;-82
2023/10/14 04:37:54;;;;;;;8.20;6.60;;;;;;;11.30;72.80;99832.58;105748;1254;72637;-79
2023/10/14 04:45:52;;;;;;;7.30;6.50;;;;;;;11.26;74.57;99823.61;105885;1254;60493;-82
2023/10/14 04:48:27;;;;;;;10.30;7.50;;;;;;;11.32;74.63;99823.98;106161;1254;61064;-83
2023/10/14 04:50:57;;;;;;;8.70;7.60;;;;;;;11.29;75.28;99822.14;106236;1254;72853;-83
2023/10/14 04:53:26;;;;;;;12.60;7.60;;;;;;;11.27;76.04;99824.30;106212;1254;71186;-81
2023/10/14 04:55:54;;;;;;;9.60;7.10;;;;;;;11.28;76.37;99821.38;105939;1254;72746;-82
2023/10/14 04:58:25;;;;;;;8.40;7.50;;;;;;;11.38;76.38;99819.58;105835;1253;60527;-81
2023/10/14 05:01:00;;;;;;;8.10;7.00;;;;;;;11.41;76.77;99818.67;106039;1254;60526;-81
2023/10/14 05:03:31;;;;;;;11.00;8.20;;;;;;;11.40;77.28;99813.52;106819;1254;73804;-82
2023/10/14 05:08:45;;;;;;;11.50;8.10;;;;;;;11.51;77.62;99814.74;106235;1253;72741;-77
2023/10/14 05:11:14;;;;;;;11.10;7.60;;;;;;;11.59;77.65;99816.70;108568;1253;60258;-84
2023/10/14 05:13:46;;;;;;;9.50;8.20;;;;;;;11.58;78.47;99816.09;109364;1254;59554;-83
2023/10/14 05:16:20;;;;;;;11.10;8.10;;;;;;;11.60;78.68;99822.23;108635;1253;72616;-84
2023/10/14 05:19:06;;;;;;;12.80;7.90;;;;;;;11.70;79.04;99821.53;107662;1254;69540;-83
2023/10/14 05:21:37;;;;;;;11.50;8.40;;;;;;;11.79;79.07;99817.45;106976;1261;71893;-81
2023/10/14 05:24:10;;;;;;;12.80;8.60;;;;;;;11.80;79.56;99816.46;106418;1254;60595;-83
2023/10/14 05:26:48;;;;;;;12.60;9.00;;;;;;;11.83;80.06;99809.21;106348;1255;60840;-83
2023/10/14 05:29:17;;;;;;;10.90;8.80;;;;;;;11.97;80.06;99789.36;105853;1252;74351;-82
2023/10/14 05:31:46;;;;;;;12.00;9.90;;;;;;;12.01;79.53;99773.14;105892;1254;70270;-81
2023/10/14 05:34:15;;;;;;;13.00;9.90;;;;;;;12.03;79.62;99780.87;106478;1254;71404;-81
2023/10/14 05:36:44;;;;;;;10.30;8.60;;;;;;;12.04;80.31;99776.45;106452;1253;61686;-81
2023/10/14 05:39:12;;;;;;;11.40;9.00;;;;;;;12.16;80.26;99780.09;106651;1259;60804;-80
2023/10/14 05:41:39;;;;;;;13.10;9.50;;;;;;;12.26;80.61;99772.59;106976;1254;72631;-79
2023/10/14 05:44:07;;;;;;;9.70;8.70;;;;;;;12.30;80.96;99769.44;106816;1258;68799;-81
2023/10/14 05:46:35;;;;;;;10.20;8.70;;;;;;;12.35;80.77;99778.02;106995;1253;72476;-79
2023/10/14 05:49:04;;;;;;;10.70;8.90;;;;;;;12.49;80.30;99777.09;107224;1254;61258;-82
2023/10/14 05:51:33;;;;;;;15.50;10.40;;;;;;;12.60;79.88;99779.73;106832;1254;60070;-82
2023/10/14 05:54:00;;;;;;;12.10;9.80;;;;;;;12.63;79.52;99786.46;106497;1256;74754;-82
2023/10/14 05:56:28;;;;;;;10.70;9.50;;;;;;;12.68;79.53;99791.92;106054;1257;68866;-81
2023/10/14 05:58:57;;;;;;;12.50;9.30;;;;;;;12.81;79.09;99785.44;105953;1254;71499;-79
2023/10/14 06:01:25;;;;;;;12.00;9.60;;;;;;;12.91;78.82;99795.11;105965;1254;60444;-79
2023/10/14 06:03:52;;;;;;;11.70;9.60;;;;;;;12.94;78.60;99794.20;106374;1252;60558;-81
2023/10/14 06:06:21;;;;;;;10.70;9.00;;;;;;;12.96;78.50;99792.89;106349;1256;74229;-81
2023/10/14 06:08:49;;;;;;;11.50;9.30;;;;;;;13.07;78.19;99789.27;106906;1256;69191;-79
2023/10/14 06:11:17;;;;;;;12.20;9.80;;;;;;;13.18;77.76;99786.63;107957;1253;71261;-82
2023/10/14 06:13:44;;;;;;;12.00;10.30;;;;;;;13.22;77.65;99783.48;109147;1254;59661;-81
2023/10/14 06:16:12;;;;;;;12.70;9.10;;;;;;;13.27;77.74;99790.92;108442;1258;59200;-78
2023/10/14 06:18:40;;;;;;;11.30;8.80;;;;;;;13.34;77.82;99786.50;106509;1252;72577;-81
2023/10/14 06:21:10;;;;;;;10.40;9.30;;;;;;;13.50;77.34;99787.59;106278;1259;69213;-81
2023/10/14 06:23:47;;;;;;;13.20;9.20;;;;;;;13.59;77.04;99787.20;106801;1254;72491;-81
2023/10/14 06:26:17;;;;;;;11.50;9.80;;;;;;;13.65;77.22;99794.46;106808;1253;60642;-78
2023/10/14 06:28:45;;;;;;;14.00;9.30;;;;;;;13.73;77.08;99785.48;106081;1257;60437;-80
2023/10/14 06:31:13;;;;;;;13.30;9.70;;;;;;;13.88;76.61;99796.90;106057;1254;73850;-84
2023/10/14 06:33:40;;;;;;;9.60;8.60;;;;;;;13.91;76.24;99790.53;106107;1259;68657;-81
2023/10/14 06:36:13;;;;;;;10.20;8.90;;;;;;;13.92;76.26;99782.78;106042;1254;72791;-82
2023/10/14 06:38:44;;;;;;;12.80;9.40;;;;;;;13.90;76.70;99790.56;105980;1259;61329;-80
2023/10/14 06:41:15;;;;;;;12.50;8.90;;;;;;;13.89;77.51;99783.33;106001;1256;60489;-80
2023/10/14 06:43:47;;;;;;;12.40;9.50;;;;;;;13.98;77.32;99788.17;105858;1259;74217;-79
2023/10/14 06:46:16;;;;;;;12.90;9.90;;;;;;;14.00;77.37;99786.98;105825;1254;70382;-80
2023/10/14 06:48:52;;;;;;;17.80;10.80;;;;;;;13.97;77.59;99789.16;105837;1258;72928;-79
2023/10/14 07:08:11;;;;;;;12.80;10.50;;;;;;;14.80;77.00;99774.47;103560;1282;613798;-78
2023/10/14 07:10:39;;;;;;;13.60;11.30;;;;;;;15.15;75.79;99766.67;105170;1266;104036;-77
2023/10/14 07:13:06;;;;;;;17.80;10.50;;;;;;;15.21;75.72;99766.67;105111;1267;60416;-77
2023/10/14 07:15:38;;;;;;;15.60;11.60;;;;;;;15.21;76.05;99774.58;105250;1265;71146;-76
2023/10/14 07:18:05;;;;;;;14.80;10.50;;;;;;;15.20;76.13;99763.61;105775;1263;69197;-78
2023/10/14 07:20:33;;;;;;;15.60;10.30;;;;;;;15.26;76.07;99760.67;105545;1259;72983;-76
2023/10/14 07:23:01;;;;;;;12.30;9.60;;;;;;;15.37;75.81;99758.71;105535;1265;62153;-75
2023/10/14 07:25:34;;;;;;;12.40;10.00;;;;;;;15.41;75.80;99761.77;105590;1258;61944;-76
2023/10/14 07:28:06;;;;;;;13.60;9.80;;;;;;;15.43;75.59;99767.06;105809;1263;73108;-78
2023/10/14 07:30:35;;;;;;;12.80;10.00;;;;;;;15.48;75.65;99757.60;105517;1259;70243;-79
2023/10/14 07:33:06;;;;;;;16.30;10.50;;;;;;;15.62;75.30;99760.84;105545;1257;71655;-80
2023/10/14 07:35:34;;;;;;;12.10;9.60;;;;;;;15.68;74.96;99754.71;105708;1260;59669;-80
2023/10/14 07:38:01;;;;;;;15.00;10.70;;;;;;;15.72;75.00;99744.31;105480;1265;60461;-81
2023/10/14 07:40:33;;;;;;;15.10;10.80;;;;;;;15.79;74.75;99744.94;105541;1260;73225;-80
2023/10/14 07:43:07;;;;;;;11.90;9.50;;;;;;;15.89;74.51;99749.58;105665;1263;71239;-78
2023/10/14 07:45:36;;;;;;;11.00;9.80;;;;;;;16.08;73.77;99747.92;105771;1259;72070;-79
2023/10/14 07:48:10;;;;;;;13.90;9.50;;;;;;;16.19;73.59;99742.52;106034;1264;59699;-79
2023/10/14 07:50:38;;;;;;;16.60;9.50;;;;;;;16.25;73.46;99730.91;106516;1258;60271;-79
2023/10/14 07:53:13;;;;;;;16.10;10.00;;;;;;;16.39;73.03;99738.34;106147;1257;71861;-78
2023/10/14 07:55:41;;;;;;;10.90;9.20;;;;;;;16.48;72.58;99741.59;105903;1260;69902;-80
2023/10/14 07:58:08;;;;;;;9.40;8.40;;;;;;;16.54;72.26;99745.25;105631;1259;71188;-78
2023/10/14 08:00:41;;;;;;;12.30;9.90;;;;;;;16.67;72.11;99747.68;105625;1261;59941;-80
2023/10/14 08:03:14;;;;;;;12.90;9.40;;;;;;;16.76;71.55;99736.67;105772;1259;59820;-79
2023/10/14 08:05:44;;;;;;;13.70;9.60;;;;;;;16.81;71.56;99726.14;105727;1259;73324;-78
2023/10/14 08:08:11;;;;;;;12.10;9.20;;;;;;;16.87;71.46;99727.39;105699;1263;68694;-77
2023/10/14 08:10:45;;;;;;;10.30;8.30;;;;;;;16.96;71.46;99718.54;105962;1260;71398;-78
2023/10/14 08:13:13;;;;;;;10.80;9.30;;;;;;;17.07;71.07;99717.77;107020;1262;59724;-76
2023/10/14 08:15:40;;;;;;;10.50;8.40;;;;;;;17.22;70.95;99715.44;105536;1259;60257;-81
2023/10/14 08:18:08;;;;;;;14.20;8.70;;;;;;;17.49;70.14;99723.30;105713;1259;71828;-79
2023/10/14 08:20:36;;;;;;;13.70;8.90;;;;;;;17.65;69.36;99719.17;105837;1257;70012;-81
2023/10/14 08:23:09;;;;;;;11.90;9.20;;;;;;;17.73;69.26;99712.73;106102;1257;70812;-78
2023/10/14 08:25:38;;;;;;;11.10;9.60;;;;;;;17.85;68.97;99722.52;105941;1260;60372;-77
2023/10/14 08:28:06;;;;;;;12.90;9.90;;;;;;;17.94;68.41;99725.39;106160;1254;60282;-80
2023/10/14 08:30:45;;;;;;;12.60;10.20;;;;;;;17.96;68.31;99712.57;105984;1254;72466;-79
2023/10/14 08:33:13;;;;;;;10.40;9.10;;;;;;;17.98;68.26;99716.03;106144;1259;68870;-79
2023/10/14 08:35:44;;;;;;;13.50;10.20;;;;;;;18.00;68.18;99715.52;106131;1256;71160;-80
2023/10/14 08:38:13;;;;;;;10.00;9.00;;;;;;;18.03;68.27;99700.65;106545;1254;60053;-77
2023/10/14 08:40:41;;;;;;;15.90;10.60;;;;;;;18.09;68.39;99690.44;106937;1255;59743;-82
2023/10/14 08:43:10;;;;;;;12.60;10.20;;;;;;;18.28;68.18;99690.70;105975;1254;71935;-80
2023/10/14 08:45:39;;;;;;;13.30;10.70;;;;;;;18.54;67.44;99698.80;105994;1256;70323;-79
2023/10/14 08:48:11;;;;;;;13.00;10.10;;;;;;;18.81;66.86;99684.95;106522;1254;71427;-80
2023/10/14 08:50:39;;;;;;;14.60;10.20;;;;;;;19.12;65.78;99685.33;106032;1254;59644;-81
2023/10/14 08:53:07;;;;;;;16.80;10.30;;;;;;;19.37;65.26;99674.08;106123;1259;59638;-80
2023/10/14 08:55:35;;;;;;;11.90;10.00;;;;;;;19.68;64.55;99676.41;106065;1258;73045;-80
2023/10/14 08:58:07;;;;;;;14.30;10.10;;;;;;;20.00;63.01;99678.14;106058;1259;68739;-78
2023/10/14 09:00:38;;;;;;;11.10;9.70;;;;;;;20.26;62.63;99660.73;105906;1257;72731;-79
2023/10/14 09:03:06;;;;;;;14.10;10.80;;;;;;;20.61;61.63;99663.37;106810;1256;59152;-80
2023/10/14 09:05:35;;;;;;;15.70;9.90;;;;;;;21.01;60.33;99651.48;107040;1254;59279;-81
2023/10/14 09:08:04;;;;;;;16.60;10.90;;;;;;;21.43;59.32;99655.41;106401;1259;72072;-79
2023/10/14 09:10:32;;;;;;;13.20;10.00;;;;;;;21.87;58.06;99659.18;105904;1259;68785;-82
2023/10/14 09:13:04;;;;;;;13.50;9.80;;;;;;;22.13;57.34;99649.17;105985;1254;72671;-79
2023/10/14 09:15:33;;;;;;;13.40;10.10;;;;;;;22.37;56.93;99643.34;105901;1256;62193;-78
2023/10/14 09:18:01;;;;;;;16.20;10.00;;;;;;;22.46;56.24;99642.27;106042;1253;59991;-78
2023/10/14 09:20:29;;;;;;;14.00;10.60;;;;;;;22.39;56.12;99647.10;105845;1259;73363;-80
2023/10/14 09:23:19;;;;;;;17.10;12.20;;;;;;;22.23;56.34;99638.02;105944;1256;70386;-79
2023/10/14 09:25:52;;;;;;;13.10;10.10;;;;;;;22.03;56.82;99628.39;105909;1254;71270;-79
2023/10/14 09:28:21;;;;;;;15.30;9.60;;;;;;;21.95;57.11;99622.36;105720;1256;60094;-79
2023/10/14 09:30:53;;;;;;;12.20;9.40;;;;;;;22.06;56.68;99629.84;106056;1254;59615;-78
2023/10/14 09:33:34;;;;;;;15.60;8.30;;;;;;;22.27;56.13;99619.58;106036;1254;73408;-78
2023/10/14 09:36:04;;;;;;;13.30;8.80;;;;;;;22.57;55.69;99619.73;106141;1254;70976;-79
2023/10/14 09:38:32;;;;;;;13.90;9.00;;;;;;;23.06;55.00;99612.95;106321;1254;72757;-78
2023/10/14 09:41:04;;;;;;;12.70;8.30;;;;;;;23.70;53.33;99602.72;106184;1257;59741;-80
2023/10/14 09:43:33;;;;;;;16.60;9.00;;;;;;;24.39;52.17;99603.18;105960;1254;60944;-76
2023/10/14 09:46:03;;;;;;;13.10;8.50;;;;;;;24.94;50.48;99603.03;105896;1256;73136;-79
2023/10/14 09:48:34;;;;;;;10.80;8.70;;;;;;;25.11;49.21;99600.64;106458;1259;69215;-80
2023/10/14 09:51:03;;;;;;;13.60;9.50;;;;;;;24.91;49.38;99589.59;106842;1254;71875;-77
2023/10/14 09:53:34;;;;;;;14.50;8.10;;;;;;;24.75;49.86;99582.20;106787;1254;59732;-77
2023/10/14 09:56:07;;;;;;;13.00;8.00;;;;;;;24.81;49.92;99579.77;106661;1254;59936;-81
2023/10/14 09:58:36;;;;;;;9.00;7.80;;;;;;;25.10;49.67;99576.34;106860;1254;72201;-80
2023/10/14 10:01:04;;;;;;;10.50;7.60;;;;;;;25.44;49.02;99571.20;106218;1254;69392;-82
2023/10/14 10:03:37;;;;;;;11.50;8.40;;;;;;;25.74;48.02;99572.89;106126;1258;72528;-76
2023/10/14 10:06:49;;;;;;;14.50;8.40;;;;;;;25.87;47.42;99571.58;106080;1254;60097;-77
2023/10/14 10:09:35;;;;;;;9.70;8.00;;;;;;;25.85;47.51;99567.34;107288;1254;60336;-76
2023/10/14 10:12:04;;;;;;;14.80;8.80;;;;;;;25.83;47.17;99563.80;106590;1254;73119;-78
2023/10/14 10:14:36;;;;;;;11.30;8.30;;;;;;;25.86;47.41;99550.81;106158;1259;69025;-76
2023/10/14 10:17:08;;;;;;;9.20;7.80;;;;;;;26.25;46.86;99555.59;106087;1256;71482;-78
2023/10/14 10:20:09;;;;;;;9.00;7.10;;;;;;;26.65;45.66;99566.77;106051;1256;59744;-78
2023/10/14 10:22:52;;;;;;;12.00;8.10;;;;;;;26.56;45.52;99538.39;106233;1256;60186;-79
2023/10/14 10:25:23;;;;;;;11.40;8.20;;;;;;;26.57;45.72;99547.55;106064;1259;73103;-76
2023/10/14 10:27:55;;;;;;;10.50;7.90;;;;;;;26.82;45.21;99538.30;105906;1254;68734;-80
2023/10/14 10:30:24;;;;;;;9.00;7.90;;;;;;;26.88;45.00;99545.02;106955;1254;72692;-77
2023/10/14 10:33:10;;;;;;;11.00;8.30;;;;;;;26.95;45.03;99536.86;109128;1254;58758;-77
2023/10/14 10:35:57;;;;;;;9.20;7.30;;;;;;;27.17;44.50;99543.59;108987;1254;59244;-77
2023/10/14 10:38:28;;;;;;;13.00;8.20;;;;;;;27.24;44.36;99541.77;109264;1254;72025;-79
2023/10/14 10:41:27;;;;;;;10.30;7.50;;;;;;;27.42;44.15;99525.84;109265;1254;71423;-77
2023/10/14 10:44:05;;;;;;;11.10;7.50;;;;;;;27.56;43.84;99528.12;108564;1256;72271;-78
2023/10/14 10:46:49;;;;;;;8.90;7.10;;;;;;;27.48;43.83;99528.98;108184;1254;59153;-78
2023/10/14 10:49:48;;;;;;;11.00;8.30;;;;;;;27.41;43.90;99533.52;108298;1254;59523;-77
2023/10/14 10:52:16;;;;;;;9.00;8.10;;;;;;;27.43;43.92;99506.02;109046;1253;71778;-79
2023/10/14 10:54:44;;;;;;;9.20;8.00;;;;;;;27.44;43.82;99502.52;109015;1254;69185;-79
2023/10/14 10:57:12;;;;;;;9.90;8.10;;;;;;;27.29;44.18;99498.38;109296;1254;71889;-77
2023/10/14 10:59:40;;;;;;;9.90;7.70;;;;;;;27.14;44.44;99498.20;109151;1254;58842;-78
2023/10/14 11:02:08;;;;;;;12.30;7.40;;;;;;;27.06;44.67;99485.05;109069;1254;59757;-76
2023/10/14 11:04:41;;;;;;;8.30;7.20;;;;;;;27.01;44.70;99478.83;109089;1254;71757;-77
2023/10/14 11:07:09;;;;;;;9.60;7.70;;;;;;;26.94;44.83;99478.21;109127;1254;69245;-78
2023/10/14 11:09:39;;;;;;;10.70;8.60;;;;;;;26.73;45.00;99479.13;108999;1255;71880;-77
2023/10/14 11:12:09;;;;;;;11.30;7.80;;;;;;;26.45;45.60;99472.80;108924;1254;60836;-77
2023/10/14 11:14:37;;;;;;;11.60;7.90;;;;;;;26.11;46.03;99472.88;109185;1254;58774;-77
2023/10/14 11:17:05;;;;;;;13.50;7.10;;;;;;;25.66;46.84;99472.30;109118;1254;71634;-78
2023/10/14 11:19:33;;;;;;;12.20;7.70;;;;;;;25.18;47.71;99474.98;109244;1254;68718;-78
2023/10/14 11:22:02;;;;;;;13.50;9.00;;;;;;;24.77;48.50;99470.77;109080;1254;71917;-76
2023/10/14 11:24:31;;;;;;;12.60;8.10;;;;;;;24.47;49.25;99466.98;109167;1254;58218;-74
2023/10/14 11:27:01;;;;;;;10.90;7.80;;;;;;;24.25;49.60;99475.85;109234;1256;60087;-77
2023/10/14 11:29:33;;;;;;;10.00;7.50;;;;;;;24.00;50.05;99487.94;109050;1254;72373;-77
2023/10/14 11:32:02;;;;;;;16.00;8.70;;;;;;;23.79;50.53;99474.77;108954;1254;69204;-76
2023/10/14 11:34:35;;;;;;;8.70;7.40;;;;;;;23.72;50.64;99472.06;108899;1254;71539;-76
2023/10/14 11:37:06;;;;;;;8.10;6.70;;;;;;;23.80;50.46;99471.76;109103;1253;58857;-77
2023/10/14 11:39:36;;;;;;;11.60;7.40;;;;;;;23.93;50.23;99463.60;108858;1254;59145;-77
2023/10/14 11:42:04;;;;;;;9.50;7.30;;;;;;;24.19;49.84;99455.08;107819;1254;73300;-75
2023/10/14 11:44:32;;;;;;;9.70;7.40;;;;;;;24.43;49.42;99458.05;108718;1254;69633;-76
2023/10/14 11:46:59;;;;;;;9.00;7.30;;;;;;;24.56;48.86;99452.10;109257;1254;71425;-76
2023/10/14 11:49:29;;;;;;;10.00;6.80;;;;;;;24.57;48.82;99447.23;108955;1261;59327;-77
2023/10/14 11:51:58;;;;;;;9.00;6.70;;;;;;;24.54;48.94;99436.52;109004;1254;59025;-76
2023/10/14 11:54:25;;;;;;;9.10;6.80;;;;;;;24.55;48.90;99437.15;107922;1255;72402;-73
2023/10/14 11:56:53;;;;;;;12.80;6.90;;;;;;;24.76;48.45;99453.98;106189;1256;70168;-75
2023/10/14 11:59:20;;;;;;;10.60;7.10;;;;;;;25.06;47.74;99432.66;106033;1254;72692;-75
2023/10/14 12:01:48;;;;;;;11.40;7.20;;;;;;;25.38;47.34;99417.48;106040;1259;60405;-76
2023/10/14 12:04:16;;;;;;;8.30;6.90;;;;;;;25.66;46.85;99411.54;105857;1254;60377;-72
2023/10/14 12:06:43;;;;;;;9.90;7.00;;;;;;;25.94;46.25;99416.91;105900;1254;72959;-74
2023/10/14 12:09:11;;;;;;;9.90;7.30;;;;;;;26.09;45.79;99427.70;105709;1259;68757;-74
2023/10/14 12:11:41;;;;;;;7.70;6.80;;;;;;;26.13;45.85;99407.70;105754;1257;72707;-73
2023/10/14 12:14:11;;;;;;;12.50;7.30;;;;;;;26.13;45.56;99423.28;105749;1257;60741;-76
2023/10/14 12:16:42;;;;;;;14.40;7.40;;;;;;;25.84;45.90;99412.30;105796;1259;60352;-76
2023/10/14 12:19:14;;;;;;;10.30;7.00;;;;;;;25.53;46.59;99412.70;105809;1254;73827;-74
2023/10/14 12:21:43;;;;;;;10.60;7.20;;;;;;;25.37;46.93;99408.00;105762;1259;68878;-76
2023/10/14 12:24:10;;;;;;;12.90;7.80;;;;;;;25.33;47.23;99392.52;105724;1254;71090;-73
2023/10/14 12:26:47;;;;;;;10.50;7.60;;;;;;;25.49;47.09;99382.10;105837;1260;60530;-77
2023/10/14 12:29:14;;;;;;;12.20;7.60;;;;;;;25.89;46.46;99380.95;105773;1257;60533;-72
2023/10/14 12:31:44;;;;;;;9.50;7.40;;;;;;;26.01;45.86;99383.27;105996;1254;74418;-74
2023/10/14 12:34:14;;;;;;;13.60;8.20;;;;;;;25.93;45.94;99372.89;106141;1258;70139;-74
2023/10/14 12:36:44;;;;;;;11.30;7.50;;;;;;;25.82;46.02;99379.92;105981;1257;72413;-75
2023/10/14 12:39:19;;;;;;;11.70;8.50;;;;;;;25.62;46.28;99362.60;106100;1260;60517;-75